Time;durP1;ratioP1;P1;durP2;ratioP2;P2;SDS_P1;SDS_P2;PMS_P1;PMS_P2;Temp;Humidity;BMP_temperature;BMP_pressure;BME280_temperature;BME280_humidity;BME280_pressure;Samples;Min_cycle;Max_cycle;Signal;HPM_P1;HPM_P2
2023/10/04 00:01:42;;;;;;;;;;;;;;;;;;6100276;23;19905;-92
2023/10/04 00:04:10;;;;;;;;;;;;;;;;;;6103727;23;19916;-91
2023/10/04 00:06:36;;;;;;;;;;;;;;;;;;6103927;23;20213;-92
2023/10/04 00:09:05;;;;;;;;;;;;;;;;;;6100240;23;19905;-88
2023/10/04 00:11:31;;;;;;;;;;;;;;;;;;6097928;23;19956;-89
2023/10/04 00:13:57;;;;;;;;;;;;;;;;;;6097342;23;19937;-87
2023/10/04 00:16:26;;;;;;;;;;;;;;;;;;6099160;23;19909;-87
2023/10/04 00:18:54;;;;;;;;;;;;;;;;;;6123991;23;19908;-90
2023/10/04 00:21:20;;;;;;;;;;;;;;;;;;6097804;23;20402;-87
2023/10/04 00:23:46;;;;;;;;;;;;;;;;;;6098327;23;20359;-87
2023/10/04 00:26:12;;;;;;;;;;;;;;;;;;6096672;23;19999;-87
2023/10/04 00:28:44;;;;;;;;;;;;;;;;;;6098714;23;19948;-88
2023/10/04 00:31:13;;;;;;;;;;;;;;;;;;6097443;23;20627;-87
2023/10/04 00:33:39;;;;;;;;;;;;;;;;;;6100287;23;19952;-89
2023/10/04 00:36:05;;;;;;;;;;;;;;;;;;6096377;23;19912;-90
2023/10/04 00:38:32;;;;;;;;;;;;;;;;;;6126896;23;19905;-89
2023/10/04 00:40:58;;;;;;;;;;;;;;;;;;6100702;23;19909;-90
2023/10/04 00:43:24;;;;;;;;;;;;;;;;;;6100255;23;20327;-90
2023/10/04 00:45:50;;;;;;;;;;;;;;;;;;6098472;23;20542;-90
2023/10/04 00:48:20;;;;;;;;;;;;;;;;;;6099956;23;19912;-90
2023/10/04 00:50:47;;;;;;;;;;;;;;;;;;6099698;23;19905;-89
2023/10/04 00:53:21;;;;;;;;;;;;;;;;;;6099163;23;19980;-88
2023/10/04 00:55:49;;;;;;;;;;;;;;;;;;6123542;23;19951;-90
2023/10/04 00:58:17;;;;;;;;;;;;;;;;;;6100852;23;20336;-90
2023/10/04 01:00:43;;;;;;;;;;;;;;;;;;6098060;23;19913;-88
2023/10/04 01:03:10;;;;;;;;;;;;;;;;;;6099299;23;19940;-90
2023/10/04 01:05:35;;;;;;;;;;;;;;;;;;6100536;23;19909;-89
2023/10/04 01:08:01;;;;;;;;;;;;;;;;;;6099042;23;19943;-89
2023/10/04 01:10:31;;;;;;;;;;;;;;;;;;6098488;23;20118;-89
2023/10/04 01:12:57;;;;;;;;;;;;;;;;;;6095106;23;20290;-89
2023/10/04 01:17:53;;;;;;;;;;;;;;;;;;6133207;23;19905;-90
2023/10/04 01:20:22;;;;;;;;;;;;;;;;;;6096207;23;19913;-88
2023/10/04 01:22:48;;;;;;;;;;;;;;;;;;6123445;23;19909;-88
2023/10/04 01:25:15;;;;;;;;;;;;;;;;;;6122665;23;19909;-87
2023/10/04 01:27:44;;;;;;;;;;;;;;;;;;6095667;23;20332;-87
2023/10/04 01:30:13;;;;;;;;;;;;;;;;;;6095832;23;19920;-87
2023/10/04 01:32:40;;;;;;;;;;;;;;;;;;6124179;23;19909;-88
2023/10/04 01:35:11;;;;;;;;;;;;;;;;;;6096566;23;19905;-88
2023/10/04 01:37:39;;;;;;;;;;;;;;;;;;6097062;23;19916;-87
2023/10/04 01:40:12;;;;;;;;;;;;;;;;;;6121964;23;19963;-88
2023/10/04 01:42:38;;;;;;;;;;;;;;;;;;6095525;23;19909;-88
2023/10/04 01:45:05;;;;;;;;;;;;;;;;;;6096054;23;20239;-88
2023/10/04 01:47:31;;;;;;;;;;;;;;;;;;6099917;23;19920;-92
2023/10/04 01:49:57;;;;;;;;;;;;;;;;;;6109647;23;19905;-92
2023/10/04 01:52:23;;;;;;;;;;;;;;;;;;6110485;23;20296;-93
2023/10/04 01:54:51;;;;;;;;;;;;;;;;;;6111062;23;19924;-92
2023/10/04 01:57:18;;;;;;;;;;;;;;;;;;6111025;23;19909;-90
2023/10/04 01:59:44;;;;;;;;;;;;;;;;;;6121498;23;19909;-91
2023/10/04 02:02:10;;;;;;;;;;;;;;;;;;6120212;23;19897;-91
2023/10/04 02:04:37;;;;;;;;;;;;;;;;;;6120792;23;19921;-93
2023/10/04 02:07:03;;;;;;;;;;;;;;;;;;6118721;23;19913;-91
2023/10/04 02:09:29;;;;;;;;;;;;;;;;;;6120879;23;19915;-92
2023/10/04 02:11:55;;;;;;;;;;;;;;;;;;6117738;23;20251;-90
2023/10/04 02:14:21;;;;;;;;;;;;;;;;;;6118895;23;19924;-90
2023/10/04 02:16:59;;;;;;;;;;;;;;;;;;6146962;23;19897;-91
2023/10/04 02:19:25;;;;;;;;;;;;;;;;;;6121625;23;19897;-90
2023/10/04 02:21:57;;;;;;;;;;;;;;;;;;6120420;23;19905;-90
2023/10/04 02:24:23;;;;;;;;;;;;;;;;;;6121561;23;19929;-90
2023/10/04 02:26:50;;;;;;;;;;;;;;;;;;6120138;23;20000;-90
2023/10/04 02:29:16;;;;;;;;;;;;;;;;;;6111191;23;19923;-92
2023/10/04 02:31:44;;;;;;;;;;;;;;;;;;6110838;23;20323;-92
2023/10/04 02:34:12;;;;;;;;;;;;;;;;;;6110072;23;19913;-94
2023/10/04 02:36:38;;;;;;;;;;;;;;;;;;6119477;23;19893;-90
2023/10/04 02:39:10;;;;;;;;;;;;;;;;;;6119119;23;19920;-90
2023/10/04 02:41:37;;;;;;;;;;;;;;;;;;6118298;23;19908;-93
2023/10/04 02:44:03;;;;;;;;;;;;;;;;;;6120669;23;19897;-92
2023/10/04 02:46:29;;;;;;;;;;;;;;;;;;6120067;23;19912;-89
2023/10/04 02:48:55;;;;;;;;;;;;;;;;;;6119415;23;19927;-90
2023/10/04 02:51:21;;;;;;;;;;;;;;;;;;6121123;23;19901;-93
2023/10/04 02:53:47;;;;;;;;;;;;;;;;;;6121702;23;19932;-90
2023/10/04 02:56:13;;;;;;;;;;;;;;;;;;6115836;23;19909;-90
2023/10/04 02:58:39;;;;;;;;;;;;;;;;;;6107102;23;19913;-91
2023/10/04 03:01:05;;;;;;;;;;;;;;;;;;6105379;23;19952;-92
2023/10/04 03:03:33;;;;;;;;;;;;;;;;;;6106137;23;20293;-94
2023/10/04 03:05:59;;;;;;;;;;;;;;;;;;6105481;23;20299;-93
2023/10/04 03:08:27;;;;;;;;;;;;;;;;;;6112318;23;19932;-90
2023/10/04 03:10:55;;;;;;;;;;;;;;;;;;6144990;23;19913;-91
2023/10/04 03:13:27;;;;;;;;;;;;;;;;;;6118955;23;19931;-91
2023/10/04 03:15:53;;;;;;;;;;;;;;;;;;6121057;23;19913;-91
2023/10/04 03:18:20;;;;;;;;;;;;;;;;;;6120559;23;19932;-91
2023/10/04 03:23:25;;;;;;;;;;;;;;;;;;6156417;23;19964;-91
2023/10/04 03:25:52;;;;;;;;;;;;;;;;;;6131885;23;19915;-93
2023/10/04 03:28:26;;;;;;;;;;;;;;;;;;6104549;23;19909;-93
2023/10/04 03:30:52;;;;;;;;;;;;;;;;;;6104434;23;19920;-92
2023/10/04 03:33:18;;;;;;;;;;;;;;;;;;6102213;23;19913;-91
2023/10/04 03:35:44;;;;;;;;;;;;;;;;;;6102966;23;20168;-94
2023/10/04 03:38:11;;;;;;;;;;;;;;;;;;6102769;23;19909;-91
2023/10/04 03:40:39;;;;;;;;;;;;;;;;;;6101587;23;19921;-90
2023/10/04 03:43:05;;;;;;;;;;;;;;;;;;6099892;23;20687;-91
2023/10/04 03:45:32;;;;;;;;;;;;;;;;;;6099722;23;19920;-91
2023/10/04 03:48:14;;;;;;;;;;;;;;;;;;6098602;23;19917;-89
2023/10/04 03:50:40;;;;;;;;;;;;;;;;;;6101805;23;19928;-90
2023/10/04 03:53:07;;;;;;;;;;;;;;;;;;6108399;23;19916;-92
2023/10/04 03:55:34;;;;;;;;;;;;;;;;;;6125685;23;19919;-91
2023/10/04 03:57:59;;;;;;;;;;;;;;;;;;6100509;23;19913;-91
2023/10/04 04:00:26;;;;;;;;;;;;;;;;;;6100461;23;19956;-90
2023/10/04 04:02:53;;;;;;;;;;;;;;;;;;6098199;23;19908;-90
2023/10/04 04:05:22;;;;;;;;;;;;;;;;;;6123745;23;20001;-90
2023/10/04 04:07:48;;;;;;;;;;;;;;;;;;6099413;23;19909;-90
2023/10/04 04:10:16;;;;;;;;;;;;;;;;;;6098898;23;20524;-90
2023/10/04 04:12:45;;;;;;;;;;;;;;;;;;6124020;23;19988;-90
2023/10/04 04:15:12;;;;;;;;;;;;;;;;;;6097370;23;19936;-92
2023/10/04 04:17:39;;;;;;;;;;;;;;;;;;6100423;23;19909;-94
2023/10/04 04:20:23;;;;;;;;;;;;;;;;;;6112873;23;19905;-94
2023/10/04 04:22:54;;;;;;;;;;;;;;;;;;6136305;23;19920;-92
2023/10/04 04:25:23;;;;;;;;;;;;;;;;;;6108832;23;20263;-93
2023/10/04 04:27:51;;;;;;;;;;;;;;;;;;6110563;23;19913;-91
2023/10/04 04:30:21;;;;;;;;;;;;;;;;;;6099044;23;19955;-91
2023/10/04 04:32:55;;;;;;;;;;;;;;;;;;6098742;23;19991;-91
2023/10/04 04:37:57;;;;;;;;;;;;;;;;;;6134609;23;19905;-90
2023/10/04 04:40:26;;;;;;;;;;;;;;;;;;6099194;23;19909;-91
2023/10/04 04:42:53;;;;;;;;;;;;;;;;;;6098954;23;19909;-91
2023/10/04 04:45:22;;;;;;;;;;;;;;;;;;6125248;23;19944;-89
2023/10/04 04:47:49;;;;;;;;;;;;;;;;;;6106213;23;19936;-91
2023/10/04 04:50:16;;;;;;;;;;;;;;;;;;6122597;23;19913;-91
2023/10/04 04:52:42;;;;;;;;;;;;;;;;;;6112334;23;19970;-94
2023/10/04 04:55:11;;;;;;;;;;;;;;;;;;6105390;23;19940;-92
2023/10/04 04:57:37;;;;;;;;;;;;;;;;;;6105094;23;19908;-94
2023/10/04 05:00:31;;;;;;;;;;;;;;;;;;6103209;23;19909;-92
2023/10/04 05:02:49;;;;;;;;;;;;;;;;;;6130308;23;19909;-93
2023/10/04 05:05:22;;;;;;;;;;;;;;;;;;6103399;23;19909;-93
2023/10/04 05:07:48;;;;;;;;;;;;;;;;;;6104952;23;20162;-92
2023/10/04 05:10:17;;;;;;;;;;;;;;;;;;6103401;23;19905;-93
2023/10/04 05:12:46;;;;;;;;;;;;;;;;;;6104763;23;19927;-93
2023/10/04 05:15:23;;;;;;;;;;;;;;;;;;6104915;23;20279;-92
2023/10/04 05:17:50;;;;;;;;;;;;;;;;;;6100751;23;19916;-92
2023/10/04 05:20:19;;;;;;;;;;;;;;;;;;6100040;23;19916;-93
2023/10/04 05:22:45;;;;;;;;;;;;;;;;;;6100176;23;19905;-93
2023/10/04 05:25:12;;;;;;;;;;;;;;;;;;6101081;23;19909;-92
2023/10/04 05:27:38;;;;;;;;;;;;;;;;;;6126139;23;20295;-92
2023/10/04 05:30:04;;;;;;;;;;;;;;;;;;6102396;23;20483;-92
2023/10/04 05:32:30;;;;;;;;;;;;;;;;;;6107835;23;19932;-92
2023/10/04 05:34:59;;;;;;;;;;;;;;;;;;6112100;23;19920;-96
2023/10/04 05:37:25;;;;;;;;;;;;;;;;;;6100292;23;20360;-90
2023/10/04 05:39:51;;;;;;;;;;;;;;;;;;6091273;23;19964;-90
2023/10/04 05:42:17;;;;;;;;;;;;;;;;;;6090295;23;19940;-90
2023/10/04 05:44:43;;;;;;;;;;;;;;;;;;6091413;23;19905;-91
2023/10/04 05:47:09;;;;;;;;;;;;;;;;;;6095557;23;19921;-91
2023/10/04 05:49:35;;;;;;;;;;;;;;;;;;6090757;23;20459;-89
2023/10/04 05:52:01;;;;;;;;;;;;;;;;;;6090344;23;20408;-89
2023/10/04 05:54:27;;;;;;;;;;;;;;;;;;6091776;23;20248;-90
2023/10/04 05:56:53;;;;;;;;;;;;;;;;;;6090759;23;19925;-90
2023/10/04 05:59:19;;;;;;;;;;;;;;;;;;6092974;23;20217;-90
2023/10/04 06:01:46;;;;;;;;;;;;;;;;;;6091446;23;20313;-90
2023/10/04 06:04:12;;;;;;;;;;;;;;;;;;6093324;23;19912;-91
2023/10/04 06:06:38;;;;;;;;;;;;;;;;;;6091188;23;19909;-90
2023/10/04 06:09:07;;;;;;;;;;;;;;;;;;6091093;23;20661;-90
2023/10/04 06:11:33;;;;;;;;;;;;;;;;;;6090238;23;20402;-91
2023/10/04 06:13:59;;;;;;;;;;;;;;;;;;6088573;23;19910;-90
2023/10/04 06:16:26;;;;;;;;;;;;;;;;;;6090939;23;20291;-90
2023/10/04 06:18:52;;;;;;;;;;;;;;;;;;6089654;23;19913;-90
2023/10/04 06:21:23;;;;;;;;;;;;;;;;;;6091581;23;20282;-90
2023/10/04 06:23:49;;;;;;;;;;;;;;;;;;6091176;23;19906;-91
2023/10/04 06:26:16;;;;;;;;;;;;;;;;;;6089506;23;19905;-90
2023/10/04 06:28:46;;;;;;;;;;;;;;;;;;6088577;23;20292;-91
2023/10/04 06:31:12;;;;;;;;;;;;;;;;;;6090256;23;19909;-91
2023/10/04 06:33:40;;;;;;;;;;;;;;;;;;6088734;23;19951;-91
2023/10/04 06:36:06;;;;;;;;;;;;;;;;;;6091663;23;19956;-92
2023/10/04 06:38:32;;;;;;;;;;;;;;;;;;6091416;23;20641;-91
2023/10/04 06:40:58;;;;;;;;;;;;;;;;;;6091374;23;19961;-90
2023/10/04 06:43:24;;;;;;;;;;;;;;;;;;6089319;23;20072;-91
2023/10/04 06:45:50;;;;;;;;;;;;;;;;;;6092041;23;19956;-91
2023/10/04 06:48:16;;;;;;;;;;;;;;;;;;6092207;23;19905;-91
2023/10/04 06:50:44;;;;;;;;;;;;;;;;;;6090009;23;19909;-91
2023/10/04 06:53:10;;;;;;;;;;;;;;;;;;6090837;23;19936;-91
2023/10/04 06:55:37;;;;;;;;;;;;;;;;;;6091614;23;19916;-91
2023/10/04 06:58:03;;;;;;;;;;;;;;;;;;6091041;23;19913;-91
2023/10/04 07:00:36;;;;;;;;;;;;;;;;;;6090561;23;19905;-92
2023/10/04 07:03:02;;;;;;;;;;;;;;;;;;6090373;23;19909;-91
2023/10/04 07:05:29;;;;;;;;;;;;;;;;;;6091225;23;19916;-91
2023/10/04 07:07:58;;;;;;;;;;;;;;;;;;6090859;23;19925;-91
2023/10/04 07:10:24;;;;;;;;;;;;;;;;;;6093526;23;19913;-91
2023/10/04 07:12:51;;;;;;;;;;;;;;;;;;6090114;23;19920;-91
2023/10/04 07:15:18;;;;;;;;;;;;;;;;;;6092224;23;20236;-92
2023/10/04 07:17:44;;;;;;;;;;;;;;;;;;6092612;23;20327;-91
2023/10/04 07:20:14;;;;;;;;;;;;;;;;;;6092315;23;20482;-92
2023/10/04 07:22:40;;;;;;;;;;;;;;;;;;6092390;23;19916;-90
2023/10/04 07:25:07;;;;;;;;;;;;;;;;;;6093539;23;19953;-90
2023/10/04 07:27:33;;;;;;;;;;;;;;;;;;6096745;23;19909;-90
2023/10/04 07:29:59;;;;;;;;;;;;;;;;;;6095332;23;19905;-90
2023/10/04 07:32:25;;;;;;;;;;;;;;;;;;6095240;23;19913;-90
2023/10/04 07:34:51;;;;;;;;;;;;;;;;;;6094666;23;19936;-90
2023/10/04 07:37:17;;;;;;;;;;;;;;;;;;6094027;23;19910;-90
2023/10/04 07:39:43;;;;;;;;;;;;;;;;;;6095057;23;19932;-90
2023/10/04 07:42:10;;;;;;;;;;;;;;;;;;6094925;23;19920;-89
2023/10/04 07:44:36;;;;;;;;;;;;;;;;;;6102126;23;19936;-91
2023/10/04 07:47:02;;;;;;;;;;;;;;;;;;6101821;23;19912;-90
2023/10/04 07:49:28;;;;;;;;;;;;;;;;;;6099012;23;19913;-91
2023/10/04 07:51:55;;;;;;;;;;;;;;;;;;6097605;23;19917;-92
2023/10/04 07:54:21;;;;;;;;;;;;;;;;;;6099533;23;19920;-91
2023/10/04 07:59:33;;;;;;;;;;;;;;;;;;6088360;23;19953;-91
2023/10/04 08:01:59;;;;;;;;;;;;;;;;;;6099208;23;19909;-91
2023/10/04 08:04:25;;;;;;;;;;;;;;;;;;6097077;23;20040;-91
2023/10/04 08:06:52;;;;;;;;;;;;;;;;;;6098426;23;19910;-91
2023/10/04 08:09:18;;;;;;;;;;;;;;;;;;6099405;23;20016;-91
2023/10/04 08:11:44;;;;;;;;;;;;;;;;;;6098674;23;19905;-90
2023/10/04 08:14:10;;;;;;;;;;;;;;;;;;6097835;23;19988;-92
2023/10/04 08:16:36;;;;;;;;;;;;;;;;;;6097655;23;19913;-91
2023/10/04 08:19:04;;;;;;;;;;;;;;;;;;6099514;23;19905;-92
2023/10/04 08:21:30;;;;;;;;;;;;;;;;;;6099557;23;19909;-91
2023/10/04 08:23:57;;;;;;;;;;;;;;;;;;6099996;23;19912;-92
2023/10/04 08:26:25;;;;;;;;;;;;;;;;;;6103084;23;19909;-91
2023/10/04 08:28:51;;;;;;;;;;;;;;;;;;6094480;23;19963;-91
2023/10/04 08:31:18;;;;;;;;;;;;;;;;;;6095523;23;20339;-91
2023/10/04 08:33:44;;;;;;;;;;;;;;;;;;6095049;23;19913;-91
2023/10/04 08:36:10;;;;;;;;;;;;;;;;;;6096288;23;19913;-90
2023/10/04 08:38:36;;;;;;;;;;;;;;;;;;6095661;23;19921;-92
2023/10/04 08:41:02;;;;;;;;;;;;;;;;;;6095822;23;19905;-92
2023/10/04 08:43:28;;;;;;;;;;;;;;;;;;6095040;23;19976;-91
2023/10/04 08:45:54;;;;;;;;;;;;;;;;;;6096143;23;20148;-91
2023/10/04 08:48:21;;;;;;;;;;;;;;;;;;6096522;23;19905;-91
2023/10/04 08:50:49;;;;;;;;;;;;;;;;;;6093646;23;19909;-92
2023/10/04 08:53:15;;;;;;;;;;;;;;;;;;6096806;23;19921;-92
2023/10/04 08:55:41;;;;;;;;;;;;;;;;;;6096101;23;19905;-92
2023/10/04 08:58:07;;;;;;;;;;;;;;;;;;6094832;23;20177;-90
2023/10/04 09:00:32;;;;;;;;;;;;;;;;;;6094138;23;19905;-90
2023/10/04 09:03:02;;;;;;;;;;;;;;;;;;6096572;23;19916;-90
2023/10/04 09:05:28;;;;;;;;;;;;;;;;;;6093643;23;19909;-91
2023/10/04 09:07:55;;;;;;;;;;;;;;;;;;6093853;23;19913;-93
2023/10/04 09:10:22;;;;;;;;;;;;;;;;;;6094460;23;20020;-94
2023/10/04 09:12:48;;;;;;;;;;;;;;;;;;6093826;23;20324;-92
2023/10/04 09:15:14;;;;;;;;;;;;;;;;;;6094021;23;20297;-93
2023/10/04 09:17:40;;;;;;;;;;;;;;;;;;6094720;23;20240;-91
2023/10/04 09:20:06;;;;;;;;;;;;;;;;;;6095282;23;19906;-92
2023/10/04 09:22:33;;;;;;;;;;;;;;;;;;6095474;23;19937;-91
2023/10/04 09:25:00;;;;;;;;;;;;;;;;;;6096076;23;20737;-91
2023/10/04 09:27:26;;;;;;;;;;;;;;;;;;6095440;23;19905;-91
2023/10/04 09:29:59;;;;;;;;;;;;;;;;;;6096683;23;19917;-91
2023/10/04 09:32:25;;;;;;;;;;;;;;;;;;6097094;23;19909;-91
2023/10/04 09:34:51;;;;;;;;;;;;;;;;;;6096836;23;19977;-91
2023/10/04 09:37:18;;;;;;;;;;;;;;;;;;6095788;23;19932;-91
2023/10/04 09:39:43;;;;;;;;;;;;;;;;;;6096554;23;20314;-92
2023/10/04 09:42:09;;;;;;;;;;;;;;;;;;6094580;23;19905;-91
2023/10/04 09:44:36;;;;;;;;;;;;;;;;;;6095646;23;19909;-91
2023/10/04 09:47:03;;;;;;;;;;;;;;;;;;6096268;23;19905;-92
2023/10/04 09:49:31;;;;;;;;;;;;;;;;;;6095652;23;19909;-91
2023/10/04 09:52:00;;;;;;;;;;;;;;;;;;6095478;23;19909;-91
2023/10/04 09:54:26;;;;;;;;;;;;;;;;;;6096112;23;19916;-91
2023/10/04 09:56:51;;;;;;;;;;;;;;;;;;6096547;23;19909;-92
2023/10/04 09:59:21;;;;;;;;;;;;;;;;;;6095973;23;19920;-90
2023/10/04 10:01:46;;;;;;;;;;;;;;;;;;6096966;23;20540;-91
2023/10/04 10:04:13;;;;;;;;;;;;;;;;;;6096037;23;19909;-91
2023/10/04 10:06:39;;;;;;;;;;;;;;;;;;6097500;23;19909;-91
2023/10/04 10:09:05;;;;;;;;;;;;;;;;;;6094963;23;19910;-92
2023/10/04 10:11:32;;;;;;;;;;;;;;;;;;6094166;23;20140;-91
2023/10/04 10:13:58;;;;;;;;;;;;;;;;;;6094351;23;20400;-91
2023/10/04 10:16:24;;;;;;;;;;;;;;;;;;6095099;23;19914;-92
2023/10/04 10:18:51;;;;;;;;;;;;;;;;;;6093102;23;19973;-92
2023/10/04 10:21:17;;;;;;;;;;;;;;;;;;6093243;23;20347;-92
2023/10/04 10:23:43;;;;;;;;;;;;;;;;;;6094478;23;19906;-91
2023/10/04 10:26:09;;;;;;;;;;;;;;;;;;6095304;23;19944;-92
2023/10/04 10:28:35;;;;;;;;;;;;;;;;;;6092171;23;19920;-92
2023/10/04 10:31:01;;;;;;;;;;;;;;;;;;6094449;23;19905;-91
2023/10/04 10:33:27;;;;;;;;;;;;;;;;;;6092210;23;19923;-93
2023/10/04 10:35:53;;;;;;;;;;;;;;;;;;6090918;23;19909;-92
2023/10/04 10:38:19;;;;;;;;;;;;;;;;;;6092099;23;19913;-91
2023/10/04 10:40:44;;;;;;;;;;;;;;;;;;6092410;23;19913;-92
2023/10/04 10:43:14;;;;;;;;;;;;;;;;;;6092286;23;19910;-93
2023/10/04 10:45:41;;;;;;;;;;;;;;;;;;6091914;23;20324;-91
2023/10/04 10:48:08;;;;;;;;;;;;;;;;;;6093015;23;19933;-92
2023/10/04 10:50:34;;;;;;;;;;;;;;;;;;6093077;23;19921;-93
2023/10/04 10:53:00;;;;;;;;;;;;;;;;;;6092937;23;19913;-92
2023/10/04 10:55:27;;;;;;;;;;;;;;;;;;6092351;23;19905;-91
2023/10/04 10:57:53;;;;;;;;;;;;;;;;;;6091843;23;19910;-93
2023/10/04 11:00:21;;;;;;;;;;;;;;;;;;6092679;23;19915;-91
2023/10/04 11:02:48;;;;;;;;;;;;;;;;;;6094226;23;19916;-92
2023/10/04 11:05:16;;;;;;;;;;;;;;;;;;6094117;23;19909;-92
2023/10/04 11:07:49;;;;;;;;;;;;;;;;;;6093786;23;20124;-92
2023/10/04 11:10:19;;;;;;;;;;;;;;;;;;6096476;23;19917;-92
2023/10/04 11:12:46;;;;;;;;;;;;;;;;;;6094830;23;19897;-92
2023/10/04 11:15:12;;;;;;;;;;;;;;;;;;6094139;23;19939;-92
2023/10/04 11:17:38;;;;;;;;;;;;;;;;;;6092020;23;20320;-93
2023/10/04 11:20:09;;;;;;;;;;;;;;;;;;6094548;23;19960;-93
2023/10/04 11:22:36;;;;;;;;;;;;;;;;;;6094829;23;19909;-91
2023/10/04 11:25:02;;;;;;;;;;;;;;;;;;6093549;23;19941;-92
2023/10/04 11:27:28;;;;;;;;;;;;;;;;;;6094183;23;19909;-92
2023/10/04 11:29:55;;;;;;;;;;;;;;;;;;6094585;23;20115;-92
2023/10/04 11:32:24;;;;;;;;;;;;;;;;;;6095841;23;19905;-91
2023/10/04 11:34:50;;;;;;;;;;;;;;;;;;6093645;23;19909;-92
2023/10/04 11:37:16;;;;;;;;;;;;;;;;;;6093073;23;19936;-91
2023/10/04 11:39:42;;;;;;;;;;;;;;;;;;6094602;23;19917;-91
2023/10/04 11:42:12;;;;;;;;;;;;;;;;;;6093839;23;19968;-91
2023/10/04 11:44:37;;;;;;;;;;;;;;;;;;6093155;23;20008;-91
2023/10/04 11:47:03;;;;;;;;;;;;;;;;;;6096511;23;19939;-91
2023/10/04 11:49:29;;;;;;;;;;;;;;;;;;6092786;23;19940;-90
2023/10/04 11:51:55;;;;;;;;;;;;;;;;;;6094046;23;19913;-91
2023/10/04 11:54:23;;;;;;;;;;;;;;;;;;6094968;23;19960;-90
2023/10/04 11:56:49;;;;;;;;;;;;;;;;;;6093650;23;19963;-89
2023/10/04 11:59:15;;;;;;;;;;;;;;;;;;6092856;23;20358;-88
2023/10/04 12:01:47;;;;;;;;;;;;;;;;;;6093382;23;19905;-89
2023/10/04 12:04:14;;;;;;;;;;;;;;;;;;6095558;23;19921;-92
2023/10/04 12:06:40;;;;;;;;;;;;;;;;;;6093566;23;20215;-92
2023/10/04 12:09:06;;;;;;;;;;;;;;;;;;6093277;23;19912;-91
2023/10/04 12:11:36;;;;;;;;;;;;;;;;;;6092502;23;19920;-91
2023/10/04 12:14:02;;;;;;;;;;;;;;;;;;6093372;23;19947;-91
2023/10/04 12:16:28;;;;;;;;;;;;;;;;;;6094342;23;19926;-91
2023/10/04 12:18:54;;;;;;;;;;;;;;;;;;6094157;23;19909;-91
2023/10/04 12:21:20;;;;;;;;;;;;;;;;;;6093512;23;19913;-91
2023/10/04 12:23:48;;;;;;;;;;;;;;;;;;6092713;23;19956;-91
2023/10/04 12:26:16;;;;;;;;;;;;;;;;;;6094854;23;19913;-90
2023/10/04 12:28:45;;;;;;;;;;;;;;;;;;6092139;23;20342;-89
2023/10/04 12:31:11;;;;;;;;;;;;;;;;;;6094310;23;19957;-89
2023/10/04 12:33:38;;;;;;;;;;;;;;;;;;6092543;23;19954;-89
2023/10/04 12:36:07;;;;;;;;;;;;;;;;;;6092092;23;19933;-89
2023/10/04 12:38:33;;;;;;;;;;;;;;;;;;6091895;23;19921;-90
2023/10/04 12:40:59;;;;;;;;;;;;;;;;;;6090647;23;19972;-89
2023/10/04 12:43:26;;;;;;;;;;;;;;;;;;6091748;23;19905;-89
2023/10/04 12:45:53;;;;;;;;;;;;;;;;;;6092233;23;20258;-90
2023/10/04 12:48:19;;;;;;;;;;;;;;;;;;6092005;23;19916;-89
2023/10/04 12:50:45;;;;;;;;;;;;;;;;;;6091644;23;19909;-90
2023/10/04 12:53:11;;;;;;;;;;;;;;;;;;6089693;23;19941;-89
2023/10/04 12:55:37;;;;;;;;;;;;;;;;;;6091033;23;19910;-90
2023/10/04 12:58:10;;;;;;;;;;;;;;;;;;6090849;23;19915;-91
2023/10/04 13:00:42;;;;;;;;;;;;;;;;;;6092091;23;19917;-91
2023/10/04 13:03:09;;;;;;;;;;;;;;;;;;6093930;23;20289;-91
2023/10/04 13:05:38;;;;;;;;;;;;;;;;;;6091942;23;19913;-92
2023/10/04 13:08:04;;;;;;;;;;;;;;;;;;6092545;23;19917;-91
2023/10/04 13:10:32;;;;;;;;;;;;;;;;;;6093042;23;20236;-90
2023/10/04 13:12:58;;;;;;;;;;;;;;;;;;6090884;23;19909;-91
2023/10/04 13:15:24;;;;;;;;;;;;;;;;;;6091486;23;19912;-91
2023/10/04 13:17:51;;;;;;;;;;;;;;;;;;6091681;23;19906;-91
2023/10/04 13:20:17;;;;;;;;;;;;;;;;;;6092145;23;19985;-91
2023/10/04 13:22:43;;;;;;;;;;;;;;;;;;6093431;23;20428;-91
2023/10/04 13:25:09;;;;;;;;;;;;;;;;;;6092046;23;20424;-91
2023/10/04 13:27:35;;;;;;;;;;;;;;;;;;6093268;23;19920;-92
2023/10/04 13:30:01;;;;;;;;;;;;;;;;;;6091934;23;19905;-91
2023/10/04 13:32:27;;;;;;;;;;;;;;;;;;6093852;23;19909;-90
2023/10/04 13:34:54;;;;;;;;;;;;;;;;;;6093926;23;19928;-91
2023/10/04 13:37:21;;;;;;;;;;;;;;;;;;6093682;23;19909;-89
2023/10/04 13:39:47;;;;;;;;;;;;;;;;;;6092999;23;19922;-89
2023/10/04 13:42:13;;;;;;;;;;;;;;;;;;6092990;23;19913;-90
2023/10/04 13:44:39;;;;;;;;;;;;;;;;;;6091564;23;19920;-89
2023/10/04 13:47:08;;;;;;;;;;;;;;;;;;6093005;23;19905;-89
2023/10/04 13:49:35;;;;;;;;;;;;;;;;;;6090841;23;20013;-90
2023/10/04 13:52:01;;;;;;;;;;;;;;;;;;6092890;23;20391;-89
2023/10/04 13:54:27;;;;;;;;;;;;;;;;;;6092183;23;19936;-90
2023/10/04 13:56:53;;;;;;;;;;;;;;;;;;6091355;23;19905;-90
2023/10/04 13:59:19;;;;;;;;;;;;;;;;;;6091847;23;19909;-90
2023/10/04 14:01:47;;;;;;;;;;;;;;;;;;6093227;23;19913;-90
2023/10/04 14:04:23;;;;;;;;;;;;;;;;;;6090838;23;19921;-90
2023/10/04 14:06:50;;;;;;;;;;;;;;;;;;6092132;23;20320;-89
2023/10/04 14:09:18;;;;;;;;;;;;;;;;;;6093197;23;19909;-90
2023/10/04 14:11:44;;;;;;;;;;;;;;;;;;6091176;23;19919;-89
2023/10/04 14:14:10;;;;;;;;;;;;;;;;;;6089221;23;19995;-91
2023/10/04 14:16:36;;;;;;;;;;;;;;;;;;6091707;23;19909;-90
2023/10/04 14:19:02;;;;;;;;;;;;;;;;;;6093603;23;20330;-93
2023/10/04 14:21:34;;;;;;;;;;;;;;;;;;6092824;23;19913;-92
2023/10/04 14:24:00;;;;;;;;;;;;;;;;;;6091899;23;20507;-92
2023/10/04 14:26:28;;;;;;;;;;;;;;;;;;6092716;23;19928;-91
2023/10/04 14:28:54;;;;;;;;;;;;;;;;;;6091616;23;19909;-91
2023/10/04 14:31:22;;;;;;;;;;;;;;;;;;6091938;23;19944;-92
2023/10/04 14:33:48;;;;;;;;;;;;;;;;;;6091880;23;19910;-92
2023/10/04 14:36:14;;;;;;;;;;;;;;;;;;6092264;23;19956;-92
2023/10/04 14:38:40;;;;;;;;;;;;;;;;;;6093463;23;20257;-93
2023/10/04 14:41:06;;;;;;;;;;;;;;;;;;6068540;23;19906;-91
2023/10/04 14:43:32;;;;;;;;;;;;;;;;;;6067344;23;19917;-92
2023/10/04 14:45:59;;;;;;;;;;;;;;;;;;6069340;23;19933;-91
2023/10/04 14:48:25;;;;;;;;;;;;;;;;;;6068438;23;20139;-92
2023/10/04 14:50:53;;;;;;;;;;;;;;;;;;6068071;23;20003;-91
2023/10/04 14:53:19;;;;;;;;;;;;;;;;;;6092390;23;19916;-92
2023/10/04 14:55:48;;;;;;;;;;;;;;;;;;6069451;23;19933;-93
2023/10/04 14:58:14;;;;;;;;;;;;;;;;;;6068066;23;19925;-92
2023/10/04 15:00:40;;;;;;;;;;;;;;;;;;6067299;23;19920;-91
2023/10/04 15:03:06;;;;;;;;;;;;;;;;;;6067029;23;19961;-93
2023/10/04 15:05:35;;;;;;;;;;;;;;;;;;6066743;23;19905;-91
2023/10/04 15:08:03;;;;;;;;;;;;;;;;;;6067040;23;19906;-91
2023/10/04 15:10:31;;;;;;;;;;;;;;;;;;6067157;23;20419;-92
2023/10/04 15:12:57;;;;;;;;;;;;;;;;;;6066236;23;19924;-91
2023/10/04 15:15:24;;;;;;;;;;;;;;;;;;6067259;23;20055;-92
2023/10/04 15:17:59;;;;;;;;;;;;;;;;;;6069272;23;20148;-92
2023/10/04 15:20:25;;;;;;;;;;;;;;;;;;6066471;23;19936;-92
2023/10/04 15:22:51;;;;;;;;;;;;;;;;;;6092829;23;20430;-91
2023/10/04 15:25:17;;;;;;;;;;;;;;;;;;6067355;23;19916;-91
2023/10/04 15:27:47;;;;;;;;;;;;;;;;;;6068155;23;19953;-91
2023/10/04 15:30:19;;;;;;;;;;;;;;;;;;6065829;23;19917;-91
2023/10/04 15:32:45;;;;;;;;;;;;;;;;;;6068581;23;19924;-92
2023/10/04 15:35:13;;;;;;;;;;;;;;;;;;6067219;23;19910;-91
2023/10/04 15:37:39;;;;;;;;;;;;;;;;;;6067760;23;19913;-91
2023/10/04 15:40:05;;;;;;;;;;;;;;;;;;6083442;23;19927;-91
2023/10/04 15:42:31;;;;;;;;;;;;;;;;;;6091126;23;20384;-91
2023/10/04 15:44:57;;;;;;;;;;;;;;;;;;6089086;23;19945;-91
2023/10/04 15:47:23;;;;;;;;;;;;;;;;;;6091252;23;19913;-91
2023/10/04 15:49:49;;;;;;;;;;;;;;;;;;6092666;23;19911;-90
2023/10/04 15:52:15;;;;;;;;;;;;;;;;;;6091572;23;19992;-90
2023/10/04 15:54:41;;;;;;;;;;;;;;;;;;6092658;23;20335;-91
2023/10/04 15:57:10;;;;;;;;;;;;;;;;;;6091542;23;19910;-92
2023/10/04 15:59:37;;;;;;;;;;;;;;;;;;6091287;23;19905;-89
2023/10/04 16:02:04;;;;;;;;;;;;;;;;;;6092516;23;20006;-91
2023/10/04 16:04:30;;;;;;;;;;;;;;;;;;6092787;23;19909;-92
2023/10/04 16:06:56;;;;;;;;;;;;;;;;;;6090903;23;19916;-91
2023/10/04 16:09:21;;;;;;;;;;;;;;;;;;6092100;23;19916;-90
2023/10/04 16:11:48;;;;;;;;;;;;;;;;;;6091161;23;19910;-90
2023/10/04 16:14:15;;;;;;;;;;;;;;;;;;6090414;23;19924;-90
2023/10/04 16:16:41;;;;;;;;;;;;;;;;;;6091309;23;19905;-90
2023/10/04 16:19:07;;;;;;;;;;;;;;;;;;6092308;23;19913;-90
2023/10/04 16:21:34;;;;;;;;;;;;;;;;;;6091359;23;20285;-90
2023/10/04 16:24:00;;;;;;;;;;;;;;;;;;6092050;23;19920;-90
2023/10/04 16:26:26;;;;;;;;;;;;;;;;;;6092009;23;19914;-90
2023/10/04 16:28:52;;;;;;;;;;;;;;;;;;6091285;23;19940;-90
2023/10/04 16:31:18;;;;;;;;;;;;;;;;;;6092106;23;20251;-90
2023/10/04 16:33:44;;;;;;;;;;;;;;;;;;6090608;23;20458;-89
2023/10/04 16:36:10;;;;;;;;;;;;;;;;;;6092750;23;19918;-90
2023/10/04 16:38:36;;;;;;;;;;;;;;;;;;6094019;23;19929;-90
2023/10/04 16:41:01;;;;;;;;;;;;;;;;;;6068694;23;19925;-90
2023/10/04 16:43:37;;;;;;;;;;;;;;;;;;6067388;23;19988;-90
2023/10/04 16:46:03;;;;;;;;;;;;;;;;;;6066928;23;19937;-90
2023/10/04 16:48:30;;;;;;;;;;;;;;;;;;6065993;23;19915;-90
2023/10/04 16:50:56;;;;;;;;;;;;;;;;;;6066716;23;19909;-90
2023/10/04 16:53:25;;;;;;;;;;;;;;;;;;6067240;23;19956;-90
2023/10/04 16:55:51;;;;;;;;;;;;;;;;;;6067586;23;20241;-89